sensor_id;sensor_type;location;lat;lon;timestamp;pressure;altitude;pressure_sealevel;temperature;humidity
29331;BME280;16331;52.528;13.342;2022-09-03T00:01:22;160312.66;;;16.76;87.47
29331;BME280;16331;52.528;13.342;2022-09-03T00:03:58;160354.09;;;16.91;86.78
29331;BME280;16331;52.528;13.342;2022-09-03T00:06:34;160359.63;;;16.93;86.04
29331;BME280;16331;52.528;13.342;2022-09-03T00:09:18;160318.22;;;16.78;87.14
29331;BME280;16331;52.528;13.342;2022-09-03T00:14:41;160267.19;;;16.60;88.85
29331;BME280;16331;52.528;13.342;2022-09-03T00:20:20;160323.75;;;16.80;87.83
29331;BME280;16331;52.528;13.342;2022-09-03T00:22:51;160312.66;;;16.76;88.06
29331;BME280;16331;52.528;13.342;2022-09-03T00:25:44;160279.59;;;16.64;89.21
29331;BME280;16331;52.528;13.342;2022-09-03T00:28:16;160274.06;;;16.62;89.20
29331;BME280;16331;52.528;13.342;2022-09-03T00:30:46;160289.25;;;16.68;88.87
29331;BME280;16331;52.528;13.342;2022-09-03T00:33:22;160239.59;;;16.50;90.02
29331;BME280;16331;52.528;13.342;2022-09-03T00:36:02;160245.13;;;16.52;89.84
29331;BME280;16331;52.528;13.342;2022-09-03T00:38:30;160239.59;;;16.50;90.47
29331;BME280;16331;52.528;13.342;2022-09-03T00:44:26;160271.31;;;16.61;90.31
29331;BME280;16331;52.528;13.342;2022-09-03T00:47:12;160213.34;;;16.40;91.67
29331;BME280;16331;52.528;13.342;2022-09-03T00:49:58;160232.66;;;16.47;91.31
29331;BME280;16331;52.528;13.342;2022-09-03T00:55:41;160180.22;;;16.28;92.80
29331;BME280;16331;52.528;13.342;2022-09-03T00:58:37;160231.31;;;16.47;92.19
29331;BME280;16331;52.528;13.342;2022-09-03T01:01:39;160152.69;;;16.18;93.83
29331;BME280;16331;52.528;13.342;2022-09-03T01:04:42;160207.81;;;16.38;92.83
29331;BME280;16331;52.528;13.342;2022-09-03T01:15:25;160134.75;;;16.12;94.67
29331;BME280;16331;52.528;13.342;2022-09-03T01:18:10;160072.72;;;15.89;96.32
29331;BME280;16331;52.528;13.342;2022-09-03T01:21:08;160103.03;;;16.00;95.68
29331;BME280;16331;52.528;13.342;2022-09-03T01:24:10;160089.25;;;15.95;96.26
29331;BME280;16331;52.528;13.342;2022-09-03T01:29:30;160103.03;;;16.00;96.02
29331;BME280;16331;52.528;13.342;2022-09-03T01:34:53;160029.94;;;15.73;97.74
29331;BME280;16331;52.528;13.342;2022-09-03T01:37:31;160061.66;;;15.85;97.46
29331;BME280;16331;52.528;13.342;2022-09-03T01:40:23;160060.31;;;15.84;96.85
29331;BME280;16331;52.528;13.342;2022-09-03T01:45:43;160061.66;;;15.85;97.20
29331;BME280;16331;52.528;13.342;2022-09-03T01:51:32;160053.41;;;15.82;97.33
29331;BME280;16331;52.528;13.342;2022-09-03T01:59:41;160032.75;;;15.74;98.16
29331;BME280;16331;52.528;13.342;2022-09-03T02:02:22;160046.53;;;15.79;97.66
29331;BME280;16331;52.528;13.342;2022-09-03T02:05:16;160085.13;;;15.93;97.00
29331;BME280;16331;52.528;13.342;2022-09-03T02:08:03;160085.13;;;15.93;96.62
29331;BME280;16331;52.528;13.342;2022-09-03T02:10:36;160053.41;;;15.82;97.38
29331;BME280;16331;52.528;13.342;2022-09-03T02:13:13;160042.41;;;15.78;98.05
29331;BME280;16331;52.528;13.342;2022-09-03T02:15:45;160047.88;;;15.80;97.87
29331;BME280;16331;52.528;13.342;2022-09-03T02:18:18;159995.50;;;15.61;99.14
29331;BME280;16331;52.528;13.342;2022-09-03T02:20:45;159983.13;;;15.56;99.65
29331;BME280;16331;52.528;13.342;2022-09-03T02:23:13;160018.94;;;15.69;98.35
29331;BME280;16331;52.528;13.342;2022-09-03T02:25:45;159984.50;;;15.57;98.93
29331;BME280;16331;52.528;13.342;2022-09-03T02:28:13;159985.84;;;15.57;98.62
29331;BME280;16331;52.528;13.342;2022-09-03T02:30:40;159969.31;;;15.51;99.56
29331;BME280;16331;52.528;13.342;2022-09-03T02:33:06;159961.06;;;15.48;100.00
29331;BME280;16331;52.528;13.342;2022-09-03T02:35:33;159956.94;;;15.47;100.00
29331;BME280;16331;52.528;13.342;2022-09-03T02:38:15;159944.53;;;15.42;100.00
29331;BME280;16331;52.528;13.342;2022-09-03T02:40:42;160014.81;;;15.68;98.80
29331;BME280;16331;52.528;13.342;2022-09-03T02:43:13;159992.78;;;15.60;98.92
29331;BME280;16331;52.528;13.342;2022-09-03T02:45:44;159939.03;;;15.40;100.00
29331;BME280;16331;52.528;13.342;2022-09-03T02:48:14;159904.53;;;15.28;100.00
29331;BME280;16331;52.528;13.342;2022-09-03T02:50:42;159923.84;;;15.35;100.00
29331;BME280;16331;52.528;13.342;2022-09-03T02:53:09;159911.41;;;15.30;100.00
29331;BME280;16331;52.528;13.342;2022-09-03T02:55:35;159955.53;;;15.46;99.79
29331;BME280;16331;52.528;13.342;2022-09-03T02:58:01;159956.94;;;15.47;99.43
29331;BME280;16331;52.528;13.342;2022-09-03T03:00:27;159912.78;;;15.31;100.00
29331;BME280;16331;52.528;13.342;2022-09-03T03:02:54;159901.78;;;15.27;100.00
29331;BME280;16331;52.528;13.342;2022-09-03T03:05:44;159932.09;;;15.38;100.00
29331;BME280;16331;52.528;13.342;2022-09-03T03:08:12;159853.59;;;15.09;100.00
29331;BME280;16331;52.528;13.342;2022-09-03T03:10:40;159897.66;;;15.25;100.00
29331;BME280;16331;52.528;13.342;2022-09-03T03:13:08;159912.78;;;15.31;100.00
29331;BME280;16331;52.528;13.342;2022-09-03T03:15:34;159879.75;;;15.19;100.00
29331;BME280;16331;52.528;13.342;2022-09-03T03:18:01;159918.31;;;15.33;100.00
29331;BME280;16331;52.528;13.342;2022-09-03T03:20:27;159926.56;;;15.36;100.00
29331;BME280;16331;52.528;13.342;2022-09-03T03:22:53;159929.31;;;15.37;100.00
29331;BME280;16331;52.528;13.342;2022-09-03T03:25:20;159940.41;;;15.41;100.00
29331;BME280;16331;52.528;13.342;2022-09-03T03:27:46;159889.34;;;15.22;100.00
29331;BME280;16331;52.528;13.342;2022-09-03T03:30:12;159885.22;;;15.21;100.00
29331;BME280;16331;52.528;13.342;2022-09-03T03:32:39;159846.66;;;15.07;100.00
29331;BME280;16331;52.528;13.342;2022-09-03T03:35:06;159846.66;;;15.07;100.00
29331;BME280;16331;52.528;13.342;2022-09-03T03:37:33;159872.84;;;15.16;100.00
29331;BME280;16331;52.528;13.342;2022-09-03T03:40:00;159854.91;;;15.10;100.00
29331;BME280;16331;52.528;13.342;2022-09-03T03:42:26;159835.69;;;15.03;100.00
29331;BME280;16331;52.528;13.342;2022-09-03T03:44:52;159816.38;;;14.96;100.00
29331;BME280;16331;52.528;13.342;2022-09-03T03:47:18;159816.38;;;14.96;100.00
29331;BME280;16331;52.528;13.342;2022-09-03T03:49:44;159854.91;;;15.10;100.00
29331;BME280;16331;52.528;13.342;2022-09-03T03:52:10;159863.19;;;15.13;100.00
29331;BME280;16331;52.528;13.342;2022-09-03T03:54:36;159893.47;;;15.24;100.00
29331;BME280;16331;52.528;13.342;2022-09-03T03:57:02;159841.16;;;15.05;100.00
29331;BME280;16331;52.528;13.342;2022-09-03T03:59:29;159830.16;;;15.01;100.00
29331;BME280;16331;52.528;13.342;2022-09-03T04:01:55;159854.91;;;15.10;100.00
29331;BME280;16331;52.528;13.342;2022-09-03T04:04:21;159912.78;;;15.31;100.00
29331;BME280;16331;52.528;13.342;2022-09-03T04:06:47;159941.81;;;15.41;99.37
29331;BME280;16331;52.528;13.342;2022-09-03T04:09:13;159921.06;;;15.34;99.79
29331;BME280;16331;52.528;13.342;2022-09-03T04:11:39;159911.41;;;15.30;100.00
29331;BME280;16331;52.528;13.342;2022-09-03T04:14:05;159955.53;;;15.46;99.55
29331;BME280;16331;52.528;13.342;2022-09-03T04:16:31;159927.97;;;15.36;100.00
29331;BME280;16331;52.528;13.342;2022-09-03T04:18:58;159929.31;;;15.37;99.52
29331;BME280;16331;52.528;13.342;2022-09-03T04:21:28;159894.88;;;15.24;100.00
29331;BME280;16331;52.528;13.342;2022-09-03T04:23:56;159912.78;;;15.31;100.00
29331;BME280;16331;52.528;13.342;2022-09-03T04:26:25;159918.31;;;15.33;100.00
29331;BME280;16331;52.528;13.342;2022-09-03T04:28:52;159894.88;;;15.24;100.00
29331;BME280;16331;52.528;13.342;2022-09-03T04:31:19;159888.00;;;15.22;100.00
29331;BME280;16331;52.528;13.342;2022-09-03T04:33:45;159919.72;;;15.33;100.00
29331;BME280;16331;52.528;13.342;2022-09-03T04:36:16;159868.72;;;15.15;100.00
29331;BME280;16331;52.528;13.342;2022-09-03T04:38:44;159775.03;;;14.81;100.00
29331;BME280;16331;52.528;13.342;2022-09-03T04:41:14;159780.56;;;14.83;100.00
29331;BME280;16331;52.528;13.342;2022-09-03T04:43:41;159787.47;;;14.85;100.00
29331;BME280;16331;52.528;13.342;2022-09-03T04:46:09;159779.16;;;14.82;100.00
29331;BME280;16331;52.528;13.342;2022-09-03T04:48:36;159823.22;;;14.98;100.00
29331;BME280;16331;52.528;13.342;2022-09-03T04:51:11;159797.06;;;14.89;100.00
29331;BME280;16331;52.528;13.342;2022-09-03T04:53:40;159806.72;;;14.92;100.00
29331;BME280;16331;52.528;13.342;2022-09-03T04:56:21;159834.28;;;15.02;100.00
29331;BME280;16331;52.528;13.342;2022-09-03T04:58:52;159894.88;;;15.24;100.00
29331;BME280;16331;52.528;13.342;2022-09-03T05:01:21;159889.34;;;15.22;100.00
29331;BME280;16331;52.528;13.342;2022-09-03T05:03:47;159868.72;;;15.15;100.00
29331;BME280;16331;52.528;13.342;2022-09-03T05:06:14;159846.66;;;15.07;100.00
29331;BME280;16331;52.528;13.342;2022-09-03T05:08:42;159837.00;;;15.03;100.00
29331;BME280;16331;52.528;13.342;2022-09-03T05:11:09;159892.13;;;15.23;100.00
29331;BME280;16331;52.528;13.342;2022-09-03T05:13:35;159860.44;;;15.12;100.00
29331;BME280;16331;52.528;13.342;2022-09-03T05:16:04;159861.84;;;15.12;100.00
29331;BME280;16331;52.528;13.342;2022-09-03T05:18:31;159916.91;;;15.32;100.00
29331;BME280;16331;52.528;13.342;2022-09-03T05:21:08;159911.41;;;15.30;100.00
29331;BME280;16331;52.528;13.342;2022-09-03T05:23:36;159888.00;;;15.22;100.00
29331;BME280;16331;52.528;13.342;2022-09-03T05:26:06;159923.84;;;15.35;100.00
29331;BME280;16331;52.528;13.342;2022-09-03T05:28:35;159904.53;;;15.28;100.00
29331;BME280;16331;52.528;13.342;2022-09-03T05:31:07;159883.88;;;15.20;100.00
29331;BME280;16331;52.528;13.342;2022-09-03T05:33:41;159883.88;;;15.20;100.00
29331;BME280;16331;52.528;13.342;2022-09-03T05:36:18;159961.06;;;15.48;100.00
29331;BME280;16331;52.528;13.342;2022-09-03T05:38:45;159956.94;;;15.47;100.00
29331;BME280;16331;52.528;13.342;2022-09-03T05:41:13;159983.13;;;15.56;100.00
29331;BME280;16331;52.528;13.342;2022-09-03T05:43:40;159970.72;;;15.52;100.00
29331;BME280;16331;52.528;13.342;2022-09-03T05:46:12;159948.69;;;15.44;100.00
29331;BME280;16331;52.528;13.342;2022-09-03T05:48:39;159976.25;;;15.54;100.00
29331;BME280;16331;52.528;13.342;2022-09-03T05:51:07;159943.16;;;15.42;100.00
29331;BME280;16331;52.528;13.342;2022-09-03T05:53:35;159961.06;;;15.48;100.00
29331;BME280;16331;52.528;13.342;2022-09-03T05:56:05;159998.28;;;15.62;100.00
29331;BME280;16331;52.528;13.342;2022-09-03T05:58:39;159987.25;;;15.58;100.00
29331;BME280;16331;52.528;13.342;2022-09-03T06:01:27;159980.38;;;15.55;100.00
29331;BME280;16331;52.528;13.342;2022-09-03T06:03:56;159918.31;;;15.33;100.00
29331;BME280;16331;52.528;13.342;2022-09-03T06:09:45;159992.78;;;15.60;100.00
29331;BME280;16331;52.528;13.342;2022-09-03T06:12:11;160045.13;;;15.79;100.00
29331;BME280;16331;52.528;13.342;2022-09-03T06:14:37;160133.38;;;16.11;100.00
29331;BME280;16331;52.528;13.342;2022-09-03T06:17:03;160083.72;;;15.93;100.00
29331;BME280;16331;52.528;13.342;2022-09-03T06:19:30;160029.94;;;15.73;100.00
29331;BME280;16331;52.528;13.342;2022-09-03T06:21:56;160125.09;;;16.08;100.00
29331;BME280;16331;52.528;13.342;2022-09-03T06:24:22;160223.00;;;16.44;100.00
29331;BME280;16331;52.528;13.342;2022-09-03T06:26:48;160191.28;;;16.32;100.00
29331;BME280;16331;52.528;13.342;2022-09-03T06:29:15;160151.28;;;16.18;100.00
29331;BME280;16331;52.528;13.342;2022-09-03T06:31:43;160205.06;;;16.37;100.00
29331;BME280;16331;52.528;13.342;2022-09-03T06:34:14;160163.69;;;16.22;100.00
29331;BME280;16331;52.528;13.342;2022-09-03T06:36:43;160196.81;;;16.34;100.00
29331;BME280;16331;52.528;13.342;2022-09-03T06:39:09;160240.94;;;16.50;100.00
29331;BME280;16331;52.528;13.342;2022-09-03T06:41:35;160227.19;;;16.45;100.00
29331;BME280;16331;52.528;13.342;2022-09-03T06:44:03;160298.88;;;16.71;100.00
29331;BME280;16331;52.528;13.342;2022-09-03T06:46:31;160268.53;;;16.60;100.00
29331;BME280;16331;52.528;13.342;2022-09-03T06:48:58;160338.88;;;16.86;100.00
29331;BME280;16331;52.528;13.342;2022-09-03T06:51:27;160377.50;;;17.00;100.00
29331;BME280;16331;52.528;13.342;2022-09-03T06:53:59;160363.75;;;16.95;100.00
29331;BME280;16331;52.528;13.342;2022-09-03T06:56:26;160417.53;;;17.14;100.00
29331;BME280;16331;52.528;13.342;2022-09-03T06:58:57;160493.44;;;17.42;100.00
29331;BME280;16331;52.528;13.342;2022-09-03T07:01:26;160526.63;;;17.54;99.61
29331;BME280;16331;52.528;13.342;2022-09-03T07:03:54;160510.03;;;17.48;99.72
29331;BME280;16331;52.528;13.342;2022-09-03T07:06:22;160572.16;;;17.71;96.78
29331;BME280;16331;52.528;13.342;2022-09-03T07:08:49;160692.28;;;18.14;95.87
29331;BME280;16331;52.528;13.342;2022-09-03T07:11:16;160704.72;;;18.19;93.84
29331;BME280;16331;52.528;13.342;2022-09-03T07:13:46;160725.41;;;18.26;92.56
29331;BME280;16331;52.528;13.342;2022-09-03T07:16:17;160693.69;;;18.15;93.28
29331;BME280;16331;52.528;13.342;2022-09-03T07:18:43;160726.81;;;18.27;92.50
29331;BME280;16331;52.528;13.342;2022-09-03T07:21:12;160672.94;;;18.07;93.86
29331;BME280;16331;52.528;13.342;2022-09-03T07:23:39;160655.00;;;18.01;95.11
29331;BME280;16331;52.528;13.342;2022-09-03T07:26:08;160815.28;;;18.59;91.56
29331;BME280;16331;52.528;13.342;2022-09-03T07:28:36;160768.34;;;18.42;91.43
29331;BME280;16331;52.528;13.342;2022-09-03T07:31:06;160744.78;;;18.33;92.07
29331;BME280;16331;52.528;13.342;2022-09-03T07:33:32;160773.81;;;18.44;92.09
29331;BME280;16331;52.528;13.342;2022-09-03T07:36:04;160823.56;;;18.62;90.41
29331;BME280;16331;52.528;13.342;2022-09-03T07:38:32;160754.47;;;18.37;93.38
29331;BME280;16331;52.528;13.342;2022-09-03T07:41:00;160760.06;;;18.39;93.11
29331;BME280;16331;52.528;13.342;2022-09-03T07:43:28;160737.91;;;18.31;94.12
29331;BME280;16331;52.528;13.342;2022-09-03T07:45:55;160726.81;;;18.27;92.50
29331;BME280;16331;52.528;13.342;2022-09-03T07:48:22;160826.38;;;18.63;90.88
29331;BME280;16331;52.528;13.342;2022-09-03T07:50:48;160878.84;;;18.82;88.84
29331;BME280;16331;52.528;13.342;2022-09-03T07:53:17;160840.13;;;18.68;89.59
29331;BME280;16331;52.528;13.342;2022-09-03T07:55:45;161040.59;;;19.41;86.02
29331;BME280;16331;52.528;13.342;2022-09-03T07:58:12;161090.41;;;19.59;82.86
29331;BME280;16331;52.528;13.342;2022-09-03T08:00:39;161097.28;;;19.61;82.52
29331;BME280;16331;52.528;13.342;2022-09-03T08:03:05;161010.19;;;19.30;85.95
29331;BME280;16331;52.528;13.342;2022-09-03T08:05:34;160981.09;;;19.19;86.28
29331;BME280;16331;52.528;13.342;2022-09-03T08:08:04;161064.13;;;19.49;83.55
29331;BME280;16331;52.528;13.342;2022-09-03T08:10:35;161086.25;;;19.57;84.94
29331;BME280;16331;52.528;13.342;2022-09-03T08:13:03;161149.84;;;19.80;82.10
29331;BME280;16331;52.528;13.342;2022-09-03T08:15:32;161180.25;;;19.91;79.90
29331;BME280;16331;52.528;13.342;2022-09-03T08:17:59;161227.31;;;20.08;79.63
29331;BME280;16331;52.528;13.342;2022-09-03T08:20:26;161058.59;;;19.47;81.43
29331;BME280;16331;52.528;13.342;2022-09-03T08:22:59;161086.25;;;19.57;81.85
29331;BME280;16331;52.528;13.342;2022-09-03T08:25:25;161174.75;;;19.89;79.11
29331;BME280;16331;52.528;13.342;2022-09-03T08:27:52;161213.47;;;20.03;79.28
29331;BME280;16331;52.528;13.342;2022-09-03T08:30:18;161275.78;;;20.26;76.88
29331;BME280;16331;52.528;13.342;2022-09-03T08:32:46;161365.69;;;20.59;75.73
29331;BME280;16331;52.528;13.342;2022-09-03T08:35:12;161263.34;;;20.22;76.23
29331;BME280;16331;52.528;13.342;2022-09-03T08:37:41;161246.69;;;20.16;75.75
29331;BME280;16331;52.528;13.342;2022-09-03T08:40:08;161192.69;;;19.96;76.26
29331;BME280;16331;52.528;13.342;2022-09-03T08:42:56;161158.13;;;19.83;75.84
29331;BME280;16331;52.528;13.342;2022-09-03T08:45:25;161187.19;;;19.94;76.42
29331;BME280;16331;52.528;13.342;2022-09-03T08:48:06;161153.97;;;19.82;78.48
29331;BME280;16331;52.528;13.342;2022-09-03T08:50:41;161246.69;;;20.16;77.21
29331;BME280;16331;52.528;13.342;2022-09-03T08:53:16;161354.66;;;20.55;75.94
29331;BME280;16331;52.528;13.342;2022-09-03T08:58:33;161148.47;;;19.80;80.84
29331;BME280;16331;52.528;13.342;2022-09-03T09:04:31;161130.50;;;19.73;79.20
29331;BME280;16331;52.528;13.342;2022-09-03T09:07:28;161079.31;;;19.55;81.84
29331;BME280;16331;52.528;13.342;2022-09-03T09:10:11;161109.72;;;19.66;80.01
29331;BME280;16331;52.528;13.342;2022-09-03T09:19:02;161389.22;;;20.67;74.77
29331;BME280;16331;52.528;13.342;2022-09-03T09:21:40;161216.22;;;20.04;78.81
29331;BME280;16331;52.528;13.342;2022-09-03T09:24:44;161313.13;;;20.40;74.63
29331;BME280;16331;52.528;13.342;2022-09-03T09:27:14;161401.69;;;20.72;71.14
29331;BME280;16331;52.528;13.342;2022-09-03T09:29:48;161469.56;;;20.96;68.61
29331;BME280;16331;52.528;13.342;2022-09-03T09:32:16;161490.31;;;21.04;68.82
29331;BME280;16331;52.528;13.342;2022-09-03T09:34:44;161466.72;;;20.95;71.96
29331;BME280;16331;52.528;13.342;2022-09-03T09:37:13;161552.63;;;21.26;69.94
29331;BME280;16331;52.528;13.342;2022-09-03T09:39:41;161601.09;;;21.44;67.29
29331;BME280;16331;52.528;13.342;2022-09-03T09:42:25;161555.38;;;21.27;65.62
29331;BME280;16331;52.528;13.342;2022-09-03T09:44:54;161529.06;;;21.18;66.93
29331;BME280;16331;52.528;13.342;2022-09-03T09:47:27;161534.63;;;21.20;66.58
29331;BME280;16331;52.528;13.342;2022-09-03T09:50:02;161511.06;;;21.11;66.19
29331;BME280;16331;52.528;13.342;2022-09-03T09:52:29;161617.69;;;21.50;65.50
29331;BME280;16331;52.528;13.342;2022-09-03T09:55:28;161653.72;;;21.63;63.64
29331;BME280;16331;52.528;13.342;2022-09-03T09:58:07;161684.19;;;21.74;62.46
29331;BME280;16331;52.528;13.342;2022-09-03T10:00:35;161728.56;;;21.90;60.85
29331;BME280;16331;52.528;13.342;2022-09-03T10:03:09;161717.50;;;21.86;61.03
29331;BME280;16331;52.528;13.342;2022-09-03T10:05:38;161570.63;;;21.33;62.32
29331;BME280;16331;52.528;13.342;2022-09-03T10:08:19;161488.91;;;21.03;65.03
29331;BME280;16331;52.528;13.342;2022-09-03T10:10:50;161609.41;;;21.47;61.11
29331;BME280;16331;52.528;13.342;2022-09-03T10:13:41;161706.41;;;21.82;52.63
29331;BME280;16331;52.528;13.342;2022-09-03T10:16:28;161710.53;;;21.84;51.29
29331;BME280;16331;52.528;13.342;2022-09-03T10:19:10;161808.94;;;22.19;47.99
29331;BME280;16331;52.528;13.342;2022-09-03T10:27:19;161734.13;;;21.92;50.34
29331;BME280;16331;52.528;13.342;2022-09-03T10:29:47;161689.78;;;21.76;51.27
29331;BME280;16331;52.528;13.342;2022-09-03T10:35:26;161671.72;;;21.70;52.42
29331;BME280;16331;52.528;13.342;2022-09-03T10:38:03;161724.41;;;21.89;52.54
29331;BME280;16331;52.528;13.342;2022-09-03T10:40:41;161808.94;;;22.19;49.53
29331;BME280;16331;52.528;13.342;2022-09-03T10:43:24;161677.28;;;21.72;49.16
29331;BME280;16331;52.528;13.342;2022-09-03T10:46:02;161778.44;;;22.08;48.81
29331;BME280;16331;52.528;13.342;2022-09-03T10:48:38;161836.66;;;22.29;48.85
29331;BME280;16331;52.528;13.342;2022-09-03T10:54:04;161788.16;;;22.12;48.98
29331;BME280;16331;52.528;13.342;2022-09-03T10:59:23;161918.44;;;22.59;47.78
29331;BME280;16331;52.528;13.342;2022-09-03T11:05:07;162069.56;;;23.14;46.83
29331;BME280;16331;52.528;13.342;2022-09-03T11:07:38;162004.41;;;22.90;47.28
29331;BME280;16331;52.528;13.342;2022-09-03T11:10:11;161964.22;;;22.75;47.76
29331;BME280;16331;52.528;13.342;2022-09-03T11:13:04;162076.47;;;23.16;46.72
29331;BME280;16331;52.528;13.342;2022-09-03T11:15:41;162134.78;;;23.37;46.08
29331;BME280;16331;52.528;13.342;2022-09-03T11:18:21;162138.94;;;23.39;46.28
29331;BME280;16331;52.528;13.342;2022-09-03T11:20:52;162302.69;;;23.98;45.23
29331;BME280;16331;52.528;13.342;2022-09-03T11:23:22;162609.53;;;25.09;42.50
29331;BME280;16331;52.528;13.342;2022-09-03T11:25:53;162866.66;;;26.02;40.55
29331;BME280;16331;52.528;13.342;2022-09-03T11:28:46;162663.72;;;25.28;40.34
29331;BME280;16331;52.528;13.342;2022-09-03T11:31:43;162256.88;;;23.81;42.84
29331;BME280;16331;52.528;13.342;2022-09-03T11:34:28;162549.88;;;24.87;41.10
29331;BME280;16331;52.528;13.342;2022-09-03T11:37:25;162626.19;;;25.15;40.37
29331;BME280;16331;52.528;13.342;2022-09-03T11:40:14;162311.06;;;24.01;42.07
29331;BME280;16331;52.528;13.342;2022-09-03T11:42:45;162249.91;;;23.79;42.73
29331;BME280;16331;52.528;13.342;2022-09-03T11:47:54;162032.16;;;23.00;44.26
29331;BME280;16331;52.528;13.342;2022-09-03T11:50:30;162036.31;;;23.02;44.59
29331;BME280;16331;52.528;13.342;2022-09-03T11:55:59;162591.50;;;25.02;39.44
29331;BME280;16331;52.528;13.342;2022-09-03T11:58:34;162822.16;;;25.86;38.54
29331;BME280;16331;52.528;13.342;2022-09-03T12:01:20;162649.84;;;25.23;39.64
29331;BME280;16331;52.528;13.342;2022-09-03T12:03:58;162288.81;;;23.93;41.86
29331;BME280;16331;52.528;13.342;2022-09-03T12:09:30;162043.22;;;23.04;45.22
29331;BME280;16331;52.528;13.342;2022-09-03T12:15:20;162188.88;;;23.57;42.99
29331;BME280;16331;52.528;13.342;2022-09-03T12:18:14;162115.41;;;23.30;43.55
29331;BME280;16331;52.528;13.342;2022-09-03T12:21:08;162116.75;;;23.31;44.93
29331;BME280;16331;52.528;13.342;2022-09-03T12:23:44;162208.34;;;23.64;44.38
29331;BME280;16331;52.528;13.342;2022-09-03T12:26:14;162194.47;;;23.59;43.65
29331;BME280;16331;52.528;13.342;2022-09-03T12:28:45;162177.81;;;23.53;42.94
29331;BME280;16331;52.528;13.342;2022-09-03T12:31:20;162127.88;;;23.35;42.40
29331;BME280;16331;52.528;13.342;2022-09-03T12:34:06;162108.44;;;23.28;42.01
29331;BME280;16331;52.528;13.342;2022-09-03T12:36:39;162120.91;;;23.32;41.01
29331;BME280;16331;52.528;13.342;2022-09-03T12:39:15;162315.22;;;24.02;41.05
29331;BME280;16331;52.528;13.342;2022-09-03T12:44:25;162554.03;;;24.89;38.10
29331;BME280;16331;52.528;13.342;2022-09-03T12:47:08;162513.75;;;24.74;38.42
29331;BME280;16331;52.528;13.342;2022-09-03T12:49:42;162706.81;;;25.44;36.96
29331;BME280;16331;52.528;13.342;2022-09-03T12:54:56;162752.69;;;25.60;36.45
29331;BME280;16331;52.528;13.342;2022-09-03T12:57:30;162610.94;;;25.09;37.13
29331;BME280;16331;52.528;13.342;2022-09-03T13:00:06;162918.13;;;26.20;35.08
29331;BME280;16331;52.528;13.342;2022-09-03T13:02:55;162705.41;;;25.43;35.60
29331;BME280;16331;52.528;13.342;2022-09-03T13:05:34;162608.13;;;25.08;36.12
29331;BME280;16331;52.528;13.342;2022-09-03T13:08:03;162640.09;;;25.20;36.73
29331;BME280;16331;52.528;13.342;2022-09-03T13:10:35;162347.09;;;24.14;37.94
29331;BME280;16331;52.528;13.342;2022-09-03T13:16:03;162724.88;;;25.50;36.19
29331;BME280;16331;52.528;13.342;2022-09-03T13:21:49;162709.63;;;25.45;36.19
29331;BME280;16331;52.528;13.342;2022-09-03T13:24:52;163078.00;;;26.78;34.41
29331;BME280;16331;52.528;13.342;2022-09-03T13:27:44;162833.28;;;25.90;35.61
29331;BME280;16331;52.528;13.342;2022-09-03T13:30:21;162408.22;;;24.36;37.88
29331;BME280;16331;52.528;13.342;2022-09-03T13:32:55;162434.56;;;24.46;38.18
29331;BME280;16331;52.528;13.342;2022-09-03T13:35:46;162467.88;;;24.58;37.74
29331;BME280;16331;52.528;13.342;2022-09-03T13:43:51;162274.94;;;23.88;38.94
29331;BME280;16331;52.528;13.342;2022-09-03T13:46:54;162304.09;;;23.98;38.67
29331;BME280;16331;52.528;13.342;2022-09-03T13:49:48;162244.41;;;23.77;39.30
29331;BME280;16331;52.528;13.342;2022-09-03T14:03:47;163253.34;;;27.41;33.89
29331;BME280;16331;52.528;13.342;2022-09-03T14:06:25;163119.75;;;26.93;34.08
29331;BME280;16331;52.528;13.342;2022-09-03T14:11:52;162547.06;;;24.86;37.15
29331;BME280;16331;52.528;13.342;2022-09-03T14:17:20;162616.53;;;25.11;36.65
29331;BME280;16331;52.528;13.342;2022-09-03T14:25:22;162833.28;;;25.90;35.87
29331;BME280;16331;52.528;13.342;2022-09-03T14:27:48;162888.91;;;26.10;34.99
29331;BME280;16331;52.528;13.342;2022-09-03T14:30:34;162858.28;;;25.99;35.03
29331;BME280;16331;52.528;13.342;2022-09-03T14:33:17;162690.16;;;25.38;36.42
29331;BME280;16331;52.528;13.342;2022-09-03T14:35:58;162660.97;;;25.27;36.43
29331;BME280;16331;52.528;13.342;2022-09-03T14:41:03;162452.63;;;24.52;37.39
29331;BME280;16331;52.528;13.342;2022-09-03T14:49:49;162873.66;;;26.04;35.17
29331;BME280;16331;52.528;13.342;2022-09-03T14:55:24;163597.25;;;28.65;30.97
29331;BME280;16331;52.528;13.342;2022-09-03T14:58:19;163644.59;;;28.82;30.93
29331;BME280;16331;52.528;13.342;2022-09-03T15:01:10;164085.09;;;30.41;29.13
29331;BME280;16331;52.528;13.342;2022-09-03T15:04:01;164083.69;;;30.40;28.71
29331;BME280;16331;52.528;13.342;2022-09-03T15:12:09;162627.59;;;25.15;35.41
29331;BME280;16331;52.528;13.342;2022-09-03T15:14:56;162438.75;;;24.47;36.77
29331;BME280;16331;52.528;13.342;2022-09-03T15:29:14;162355.41;;;24.17;38.80
29331;BME280;16331;52.528;13.342;2022-09-03T15:34:57;162233.28;;;23.73;40.13
29331;BME280;16331;52.528;13.342;2022-09-03T15:37:29;162186.13;;;23.56;40.52
29331;BME280;16331;52.528;13.342;2022-09-03T15:40:23;162236.03;;;23.74;39.64
29331;BME280;16331;52.528;13.342;2022-09-03T15:42:51;162266.59;;;23.85;39.44
29331;BME280;16331;52.528;13.342;2022-09-03T15:45:54;162229.13;;;23.71;40.38